Time;durP1;ratioP1;P1;durP2;ratioP2;P2;SDS_P1;SDS_P2;PMS_P1;PMS_P2;Temp;Humidity;BMP_temperature;BMP_pressure;BME280_temperature;BME280_humidity;BME280_pressure;Samples;Min_cycle;Max_cycle;Signal;HPM_P1;HPM_P2
2023/09/04 00:02:08;;;;;;;;;;;;;;;;;;4983746;28;19987;-86
2023/09/04 00:04:34;;;;;;;;;;;;;;;;;;4987881;28;19917;-86
2023/09/04 00:07:00;;;;;;;;;;;;;;;;;;4991325;28;19937;-86
2023/09/04 00:09:26;;;;;;;;;;;;;;;;;;4982965;28;19926;-86
2023/09/04 00:11:52;;;;;;;;;;;;;;;;;;4983537;28;19924;-86
2023/09/04 00:14:18;;;;;;;;;;;;;;;;;;4983234;28;20011;-84
2023/09/04 00:16:44;;;;;;;;;;;;;;;;;;4975196;28;20020;-82
2023/09/04 00:19:10;;;;;;;;;;;;;;;;;;4983333;28;20344;-84
2023/09/04 00:21:36;;;;;;;;;;;;;;;;;;4991863;28;20470;-84
2023/09/04 00:24:02;;;;;;;;;;;;;;;;;;4990283;28;19921;-84
2023/09/04 00:26:28;;;;;;;;;;;;;;;;;;4991692;28;19926;-84
2023/09/04 00:28:54;;;;;;;;;;;;;;;;;;4990741;28;20390;-86
2023/09/04 00:31:20;;;;;;;;;;;;;;;;;;4983069;28;20434;-87
2023/09/04 00:33:46;;;;;;;;;;;;;;;;;;4983150;28;19917;-86
2023/09/04 00:36:12;;;;;;;;;;;;;;;;;;4983513;28;19980;-86
2023/09/04 00:38:37;;;;;;;;;;;;;;;;;;4983806;28;19917;-86
2023/09/04 00:41:03;;;;;;;;;;;;;;;;;;4981513;28;19933;-86
2023/09/04 00:43:29;;;;;;;;;;;;;;;;;;4985106;28;20400;-87
2023/09/04 00:45:55;;;;;;;;;;;;;;;;;;4981533;28;19957;-86
2023/09/04 00:48:21;;;;;;;;;;;;;;;;;;4983437;28;20049;-86
2023/09/04 00:50:47;;;;;;;;;;;;;;;;;;4982900;28;20335;-86
2023/09/04 00:59:29;;;;;;;;;;;;;;;;;;;;;
2023/09/04 01:02:08;;;;;;;;;;;;;;;;;;;;;
2023/09/04 01:12:40;;;;;;;;;;;;;;;;;;4994422;28;19932;-85
2023/09/04 01:20:37;;;;;;;;;;;;;;;;;;5387890;23;20117;-86
2023/09/04 01:25:47;;;;;;;;;;;;;;;;;;4998729;28;19946;-85
2023/09/04 01:28:13;;;;;;;;;;;;;;;;;;4999343;28;19921;-86
2023/09/04 01:30:51;;;;;;;;;;;;;;;;;;5007678;28;19916;-86
2023/09/04 01:41:35;;;;;;;;;;;;;;;;;;5240299;23;20360;-85
2023/09/04 01:44:14;;;;;;;;;;;;;;;;;;;;;
2023/09/04 01:52:25;;;;;;;;;;;;;;;;;;5005952;28;19922;-87
2023/09/04 01:54:51;;;;;;;;;;;;;;;;;;5007064;28;19974;-87
2023/09/04 01:57:17;;;;;;;;;;;;;;;;;;5008636;28;19921;-86
2023/09/04 01:59:42;;;;;;;;;;;;;;;;;;5018646;28;19928;-87
2023/09/04 02:02:08;;;;;;;;;;;;;;;;;;5009116;28;21585;-86
2023/09/04 02:04:34;;;;;;;;;;;;;;;;;;5009575;28;19920;-87
2023/09/04 02:07:00;;;;;;;;;;;;;;;;;;5019660;28;19982;-87
2023/09/04 02:09:26;;;;;;;;;;;;;;;;;;5016931;28;19925;-87
2023/09/04 02:11:52;;;;;;;;;;;;;;;;;;5020488;28;20413;-86
2023/09/04 02:14:18;;;;;;;;;;;;;;;;;;5018048;28;19987;-87
2023/09/04 02:16:44;;;;;;;;;;;;;;;;;;5009768;28;19921;-87
2023/09/04 02:19:10;;;;;;;;;;;;;;;;;;5010737;28;19929;-87
2023/09/04 02:21:36;;;;;;;;;;;;;;;;;;5018011;28;19958;-87
2023/09/04 02:24:02;;;;;;;;;;;;;;;;;;5018128;28;19955;-86
2023/09/04 02:26:28;;;;;;;;;;;;;;;;;;5024911;28;19925;-86
2023/09/04 02:28:54;;;;;;;;;;;;;;;;;;5017875;28;19921;-86
2023/09/04 02:31:19;;;;;;;;;;;;;;;;;;5020032;28;20364;-86
2023/09/04 02:33:45;;;;;;;;;;;;;;;;;;5013646;28;19920;-85
2023/09/04 02:36:11;;;;;;;;;;;;;;;;;;5020597;28;20409;-87
2023/09/04 02:38:37;;;;;;;;;;;;;;;;;;5017486;28;19935;-86
2023/09/04 02:41:03;;;;;;;;;;;;;;;;;;5017894;28;19936;-86
2023/09/04 02:43:29;;;;;;;;;;;;;;;;;;5019694;28;19920;-85
2023/09/04 02:45:57;;;;;;;;;;;;;;;;;;5011900;28;20338;-86
2023/09/04 02:48:23;;;;;;;;;;;;;;;;;;5017294;28;20023;-86
2023/09/04 02:50:49;;;;;;;;;;;;;;;;;;5014551;28;19974;-85
2023/09/04 02:53:15;;;;;;;;;;;;;;;;;;5017285;28;19921;-86
2023/09/04 02:55:41;;;;;;;;;;;;;;;;;;5016222;28;20418;-86
2023/09/04 02:58:08;;;;;;;;;;;;;;;;;;5010779;28;19925;-87
2023/09/04 03:00:34;;;;;;;;;;;;;;;;;;5020758;28;19947;-86
2023/09/04 03:02:59;;;;;;;;;;;;;;;;;;5013978;28;19924;-86
2023/09/04 03:05:26;;;;;;;;;;;;;;;;;;5017858;28;19920;-87
2023/09/04 03:07:52;;;;;;;;;;;;;;;;;;5010803;28;19925;-85
2023/09/04 03:10:18;;;;;;;;;;;;;;;;;;5017104;28;20475;-88
2023/09/04 03:12:44;;;;;;;;;;;;;;;;;;5007915;28;19916;-87
2023/09/04 03:15:10;;;;;;;;;;;;;;;;;;5011299;28;19964;-86
2023/09/04 03:17:36;;;;;;;;;;;;;;;;;;5020098;28;19927;-86
2023/09/04 03:20:04;;;;;;;;;;;;;;;;;;5010676;28;19923;-86
2023/09/04 03:22:30;;;;;;;;;;;;;;;;;;5022960;28;20361;-86
2023/09/04 03:24:56;;;;;;;;;;;;;;;;;;5015911;28;19997;-85
2023/09/04 03:27:22;;;;;;;;;;;;;;;;;;5012759;28;19925;-85
2023/09/04 03:29:48;;;;;;;;;;;;;;;;;;5019189;28;20504;-86
2023/09/04 03:32:14;;;;;;;;;;;;;;;;;;5011947;28;19925;-86
2023/09/04 03:34:40;;;;;;;;;;;;;;;;;;5018103;28;19998;-86
2023/09/04 03:37:06;;;;;;;;;;;;;;;;;;5016533;28;20339;-86
2023/09/04 03:39:32;;;;;;;;;;;;;;;;;;5016837;28;19920;-86
2023/09/04 03:41:58;;;;;;;;;;;;;;;;;;5017218;28;19925;-86
2023/09/04 03:44:23;;;;;;;;;;;;;;;;;;5014876;28;19920;-86
2023/09/04 03:46:49;;;;;;;;;;;;;;;;;;5014181;28;20170;-87
2023/09/04 03:49:16;;;;;;;;;;;;;;;;;;5017938;28;19927;-86
2023/09/04 03:51:42;;;;;;;;;;;;;;;;;;5012325;28;19916;-86
2023/09/04 03:54:08;;;;;;;;;;;;;;;;;;5014805;28;19932;-86
2023/09/04 03:56:34;;;;;;;;;;;;;;;;;;5016836;28;19920;-85
2023/09/04 03:59:00;;;;;;;;;;;;;;;;;;5009236;28;19975;-86
2023/09/04 04:01:27;;;;;;;;;;;;;;;;;;5019574;28;20019;-86
2023/09/04 04:03:53;;;;;;;;;;;;;;;;;;5018941;28;19920;-85
2023/09/04 04:06:22;;;;;;;;;;;;;;;;;;5016470;28;19925;-87
2023/09/04 04:08:48;;;;;;;;;;;;;;;;;;5006815;28;19916;-86
2023/09/04 04:11:15;;;;;;;;;;;;;;;;;;5023443;28;19932;-87
2023/09/04 04:13:41;;;;;;;;;;;;;;;;;;5007135;28;19921;-86
2023/09/04 04:16:07;;;;;;;;;;;;;;;;;;5024179;28;19920;-87
2023/09/04 04:18:33;;;;;;;;;;;;;;;;;;5021287;28;19935;-86
2023/09/04 04:20:59;;;;;;;;;;;;;;;;;;5006422;28;19922;-85
2023/09/04 04:23:25;;;;;;;;;;;;;;;;;;5005049;28;19920;-87
2023/09/04 04:25:50;;;;;;;;;;;;;;;;;;5009193;28;19929;-86
2023/09/04 04:28:16;;;;;;;;;;;;;;;;;;5010895;28;19920;-86
2023/09/04 04:30:42;;;;;;;;;;;;;;;;;;5012779;28;19946;-87
2023/09/04 04:33:08;;;;;;;;;;;;;;;;;;5008731;28;20677;-86
2023/09/04 04:35:34;;;;;;;;;;;;;;;;;;5018556;28;19975;-86
2023/09/04 04:38:00;;;;;;;;;;;;;;;;;;5018742;28;20004;-86
2023/09/04 04:40:26;;;;;;;;;;;;;;;;;;5023286;28;19935;-86
2023/09/04 04:42:52;;;;;;;;;;;;;;;;;;5023412;28;19933;-86
2023/09/04 04:45:18;;;;;;;;;;;;;;;;;;5012313;28;20082;-86
2023/09/04 04:47:44;;;;;;;;;;;;;;;;;;5019261;28;19929;-87
2023/09/04 04:50:10;;;;;;;;;;;;;;;;;;5021244;28;19920;-86
2023/09/04 04:52:35;;;;;;;;;;;;;;;;;;5022821;28;20422;-86
2023/09/04 04:55:01;;;;;;;;;;;;;;;;;;5012243;28;20016;-86
2023/09/04 04:57:28;;;;;;;;;;;;;;;;;;5015956;28;19921;-86
2023/09/04 04:59:54;;;;;;;;;;;;;;;;;;5015838;28;19963;-86
2023/09/04 05:02:21;;;;;;;;;;;;;;;;;;5020062;28;20192;-86
2023/09/04 05:04:47;;;;;;;;;;;;;;;;;;5018074;28;19921;-86
2023/09/04 05:07:12;;;;;;;;;;;;;;;;;;4995973;28;19925;-86
2023/09/04 05:09:38;;;;;;;;;;;;;;;;;;5024181;28;19921;-86
2023/09/04 05:12:04;;;;;;;;;;;;;;;;;;5016226;28;19960;-86
2023/09/04 05:14:30;;;;;;;;;;;;;;;;;;5029499;28;20422;-85
2023/09/04 05:16:56;;;;;;;;;;;;;;;;;;5022704;28;19969;-86
2023/09/04 05:19:22;;;;;;;;;;;;;;;;;;5018976;28;19921;-87
2023/09/04 05:21:48;;;;;;;;;;;;;;;;;;5019457;28;19927;-86
2023/09/04 05:24:14;;;;;;;;;;;;;;;;;;5014609;28;19925;-86
2023/09/04 05:26:40;;;;;;;;;;;;;;;;;;5009681;28;19928;-86
2023/09/04 05:29:05;;;;;;;;;;;;;;;;;;5019629;28;19921;-86
2023/09/04 05:31:31;;;;;;;;;;;;;;;;;;5019146;28;19921;-86
2023/09/04 05:33:57;;;;;;;;;;;;;;;;;;5018780;28;20011;-86
2023/09/04 05:36:23;;;;;;;;;;;;;;;;;;5025516;28;20456;-86
2023/09/04 05:38:49;;;;;;;;;;;;;;;;;;5018447;28;19920;-86
2023/09/04 05:41:15;;;;;;;;;;;;;;;;;;5019030;28;19925;-86
2023/09/04 05:43:41;;;;;;;;;;;;;;;;;;5009222;28;20418;-87
2023/09/04 05:46:07;;;;;;;;;;;;;;;;;;5017053;28;19921;-85
2023/09/04 05:48:33;;;;;;;;;;;;;;;;;;5018175;28;19920;-86
2023/09/04 05:50:59;;;;;;;;;;;;;;;;;;5018734;28;19939;-86
2023/09/04 05:53:24;;;;;;;;;;;;;;;;;;5009442;28;20383;-86
2023/09/04 05:55:50;;;;;;;;;;;;;;;;;;5011451;28;20464;-86
2023/09/04 05:58:16;;;;;;;;;;;;;;;;;;5020057;28;19978;-87
2023/09/04 06:00:42;;;;;;;;;;;;;;;;;;5017919;28;20020;-86
2023/09/04 06:03:09;;;;;;;;;;;;;;;;;;4992739;28;19968;-87
2023/09/04 06:05:35;;;;;;;;;;;;;;;;;;5016732;28;19920;-87
2023/09/04 06:08:01;;;;;;;;;;;;;;;;;;5012441;28;20048;-85
2023/09/04 06:10:27;;;;;;;;;;;;;;;;;;5020342;28;19927;-87
2023/09/04 06:12:54;;;;;;;;;;;;;;;;;;5020143;28;20019;-87
2023/09/04 06:15:20;;;;;;;;;;;;;;;;;;5017467;28;20004;-87
2023/09/04 06:17:46;;;;;;;;;;;;;;;;;;5009781;28;19916;-86
2023/09/04 06:20:12;;;;;;;;;;;;;;;;;;5009510;28;19974;-86
2023/09/04 06:22:39;;;;;;;;;;;;;;;;;;5010242;28;19999;-87
2023/09/04 06:25:05;;;;;;;;;;;;;;;;;;5020547;28;19916;-86
2023/09/04 06:27:31;;;;;;;;;;;;;;;;;;5017789;28;19925;-86
2023/09/04 06:29:57;;;;;;;;;;;;;;;;;;5009672;28;20343;-86
2023/09/04 06:32:23;;;;;;;;;;;;;;;;;;5018796;28;19927;-86
2023/09/04 06:34:49;;;;;;;;;;;;;;;;;;5020253;28;20004;-86
2023/09/04 06:37:15;;;;;;;;;;;;;;;;;;4998273;28;19932;-86
2023/09/04 06:39:41;;;;;;;;;;;;;;;;;;4997626;28;20425;-86
2023/09/04 06:42:07;;;;;;;;;;;;;;;;;;5021752;28;19950;-86
2023/09/04 06:44:33;;;;;;;;;;;;;;;;;;5008698;28;20414;-87
2023/09/04 06:46:59;;;;;;;;;;;;;;;;;;5008810;28;20028;-86
2023/09/04 06:49:24;;;;;;;;;;;;;;;;;;5017224;28;20389;-87
2023/09/04 06:51:50;;;;;;;;;;;;;;;;;;5007755;28;19916;-86
2023/09/04 06:54:16;;;;;;;;;;;;;;;;;;5013429;28;19956;-87
2023/09/04 06:56:42;;;;;;;;;;;;;;;;;;5016578;28;19916;-85
2023/09/04 06:59:08;;;;;;;;;;;;;;;;;;5008966;28;19925;-86
2023/09/04 07:01:34;;;;;;;;;;;;;;;;;;5017314;28;19925;-86
2023/09/04 07:04:00;;;;;;;;;;;;;;;;;;5010358;28;19916;-87
2023/09/04 07:06:26;;;;;;;;;;;;;;;;;;5019926;28;19925;-85
2023/09/04 07:08:53;;;;;;;;;;;;;;;;;;5020183;28;20010;-87
2023/09/04 07:11:19;;;;;;;;;;;;;;;;;;5009041;28;20019;-86
2023/09/04 07:13:45;;;;;;;;;;;;;;;;;;5013515;28;20451;-86
2023/09/04 07:16:11;;;;;;;;;;;;;;;;;;5011484;28;19940;-86
2023/09/04 07:18:38;;;;;;;;;;;;;;;;;;5012187;28;19920;-86
2023/09/04 07:21:04;;;;;;;;;;;;;;;;;;5020169;28;19920;-85
2023/09/04 07:23:30;;;;;;;;;;;;;;;;;;5070812;23;20038;-82
2023/09/04 07:25:56;;;;;;;;;;;;;;;;;;5014591;28;19921;-84
2023/09/04 07:28:21;;;;;;;;;;;;;;;;;;5016309;28;19921;-82
2023/09/04 07:30:47;;;;;;;;;;;;;;;;;;5012580;28;19921;-83
2023/09/04 07:33:14;;;;;;;;;;;;;;;;;;5018273;28;19928;-84
2023/09/04 07:35:40;;;;;;;;;;;;;;;;;;4999736;28;19921;-83
2023/09/04 07:38:06;;;;;;;;;;;;;;;;;;4989640;28;19980;-82
2023/09/04 07:40:33;;;;;;;;;;;;;;;;;;4998476;28;19921;-82
2023/09/04 07:42:59;;;;;;;;;;;;;;;;;;5005220;28;19920;-83
2023/09/04 07:45:25;;;;;;;;;;;;;;;;;;4976471;28;19928;-83
2023/09/04 07:47:51;;;;;;;;;;;;;;;;;;4991109;28;20036;-82
2023/09/04 07:50:17;;;;;;;;;;;;;;;;;;4994747;28;19921;-83
2023/09/04 07:52:43;;;;;;;;;;;;;;;;;;4967601;28;19921;-83
2023/09/04 07:55:09;;;;;;;;;;;;;;;;;;4993501;28;19925;-83
2023/09/04 07:57:35;;;;;;;;;;;;;;;;;;4976438;28;19921;-83
2023/09/04 08:00:01;;;;;;;;;;;;;;;;;;4977754;28;19921;-83
2023/09/04 08:02:27;;;;;;;;;;;;;;;;;;4978601;28;19921;-83
2023/09/04 08:04:53;;;;;;;;;;;;;;;;;;4994231;28;20335;-81
2023/09/04 08:07:19;;;;;;;;;;;;;;;;;;4993896;28;20456;-81
2023/09/04 08:09:45;;;;;;;;;;;;;;;;;;4998448;28;19916;-83
2023/09/04 08:12:11;;;;;;;;;;;;;;;;;;4981446;28;20439;-82
2023/09/04 08:14:37;;;;;;;;;;;;;;;;;;4983441;28;19960;-83
2023/09/04 08:17:03;;;;;;;;;;;;;;;;;;4996436;28;19932;-83
2023/09/04 08:19:29;;;;;;;;;;;;;;;;;;4989697;28;19921;-83
2023/09/04 08:21:55;;;;;;;;;;;;;;;;;;4989002;28;19922;-83
2023/09/04 08:24:20;;;;;;;;;;;;;;;;;;4969746;28;19925;-80
2023/09/04 08:26:46;;;;;;;;;;;;;;;;;;4970460;28;19925;-82
2023/09/04 08:29:12;;;;;;;;;;;;;;;;;;4976479;28;19921;-81
2023/09/04 08:31:38;;;;;;;;;;;;;;;;;;4991539;28;19959;-81
2023/09/04 08:34:04;;;;;;;;;;;;;;;;;;4986949;28;20334;-81
2023/09/04 08:36:30;;;;;;;;;;;;;;;;;;4967132;28;19921;-81
2023/09/04 08:38:56;;;;;;;;;;;;;;;;;;4962061;28;19937;-81
2023/09/04 08:41:22;;;;;;;;;;;;;;;;;;4956611;28;20387;-81
2023/09/04 08:43:49;;;;;;;;;;;;;;;;;;4979924;28;19921;-81
2023/09/04 08:46:15;;;;;;;;;;;;;;;;;;4975397;28;19930;-81
2023/09/04 08:48:41;;;;;;;;;;;;;;;;;;4993009;28;19928;-81
2023/09/04 08:51:07;;;;;;;;;;;;;;;;;;4993288;28;19917;-82
2023/09/04 08:53:33;;;;;;;;;;;;;;;;;;4987504;28;20419;-81
2023/09/04 08:55:59;;;;;;;;;;;;;;;;;;4992912;28;19929;-82
2023/09/04 08:58:25;;;;;;;;;;;;;;;;;;4965035;28;19940;-82
2023/09/04 09:00:54;;;;;;;;;;;;;;;;;;4964104;28;19922;-83
2023/09/04 09:03:20;;;;;;;;;;;;;;;;;;4973454;28;19917;-80
2023/09/04 09:05:45;;;;;;;;;;;;;;;;;;4993595;28;20427;-81
2023/09/04 09:08:11;;;;;;;;;;;;;;;;;;4970340;28;19928;-81
2023/09/04 09:10:37;;;;;;;;;;;;;;;;;;4965081;28;20442;-81
2023/09/04 09:13:03;;;;;;;;;;;;;;;;;;4992860;28;20336;-80
2023/09/04 09:15:29;;;;;;;;;;;;;;;;;;4992731;28;20024;-81
2023/09/04 09:17:55;;;;;;;;;;;;;;;;;;4973147;28;19979;-82
2023/09/04 09:20:21;;;;;;;;;;;;;;;;;;4995178;28;19921;-81
2023/09/04 09:22:47;;;;;;;;;;;;;;;;;;4992235;28;20069;-81
2023/09/04 09:25:13;;;;;;;;;;;;;;;;;;4991505;28;19932;-82
2023/09/04 09:27:40;;;;;;;;;;;;;;;;;;4963025;28;19921;-81
2023/09/04 09:30:06;;;;;;;;;;;;;;;;;;4988506;28;20337;-82
2023/09/04 09:32:32;;;;;;;;;;;;;;;;;;4973699;28;19975;-82
2023/09/04 09:34:57;;;;;;;;;;;;;;;;;;4973816;28;19917;-81
2023/09/04 09:37:23;;;;;;;;;;;;;;;;;;4977780;28;20624;-81
2023/09/04 09:39:49;;;;;;;;;;;;;;;;;;4968159;28;20411;-81
2023/09/04 09:42:15;;;;;;;;;;;;;;;;;;4972752;28;20024;-81
2023/09/04 09:44:41;;;;;;;;;;;;;;;;;;4994898;28;20024;-81
2023/09/04 09:47:08;;;;;;;;;;;;;;;;;;4976788;28;19964;-83
2023/09/04 09:49:33;;;;;;;;;;;;;;;;;;4982215;28;20401;-81
2023/09/04 09:51:59;;;;;;;;;;;;;;;;;;4972467;28;20447;-81
2023/09/04 09:54:25;;;;;;;;;;;;;;;;;;4993382;28;19993;-82
2023/09/04 09:56:51;;;;;;;;;;;;;;;;;;4984699;28;19922;-80
2023/09/04 09:59:17;;;;;;;;;;;;;;;;;;4984380;28;19917;-81
2023/09/04 10:01:43;;;;;;;;;;;;;;;;;;4966048;28;19929;-81
2023/09/04 10:04:09;;;;;;;;;;;;;;;;;;4983845;28;19916;-81
2023/09/04 10:06:35;;;;;;;;;;;;;;;;;;4982003;28;19925;-83
2023/09/04 10:09:01;;;;;;;;;;;;;;;;;;4987238;28;19974;-80
2023/09/04 10:11:26;;;;;;;;;;;;;;;;;;4992570;28;19921;-80
2023/09/04 10:13:52;;;;;;;;;;;;;;;;;;4991669;28;20006;-79
2023/09/04 10:16:18;;;;;;;;;;;;;;;;;;4983324;28;19921;-80
2023/09/04 10:18:44;;;;;;;;;;;;;;;;;;4971291;28;19921;-81
2023/09/04 10:21:10;;;;;;;;;;;;;;;;;;4985605;28;19923;-82
2023/09/04 10:23:36;;;;;;;;;;;;;;;;;;4970120;28;19921;-81
2023/09/04 10:26:02;;;;;;;;;;;;;;;;;;4975138;28;20119;-82
2023/09/04 10:28:28;;;;;;;;;;;;;;;;;;4982390;28;19921;-81
2023/09/04 10:30:54;;;;;;;;;;;;;;;;;;4983022;28;19923;-81
2023/09/04 10:33:20;;;;;;;;;;;;;;;;;;4966625;28;19960;-80
2023/09/04 10:35:46;;;;;;;;;;;;;;;;;;4986683;28;19936;-80
2023/09/04 10:38:12;;;;;;;;;;;;;;;;;;4965151;28;19921;-81
2023/09/04 10:40:38;;;;;;;;;;;;;;;;;;4982963;28;20511;-80
2023/09/04 10:43:04;;;;;;;;;;;;;;;;;;4986471;28;19921;-80
2023/09/04 10:45:30;;;;;;;;;;;;;;;;;;4983129;28;19928;-80
2023/09/04 10:47:56;;;;;;;;;;;;;;;;;;4969242;28;19973;-81
2023/09/04 10:50:22;;;;;;;;;;;;;;;;;;4928712;28;20564;-81
2023/09/04 10:52:48;;;;;;;;;;;;;;;;;;4981879;28;19925;-81
2023/09/04 10:55:15;;;;;;;;;;;;;;;;;;4981595;28;20448;-82
2023/09/04 10:57:41;;;;;;;;;;;;;;;;;;4987636;28;20007;-82
2023/09/04 11:00:06;;;;;;;;;;;;;;;;;;4980957;28;20404;-81
2023/09/04 11:02:32;;;;;;;;;;;;;;;;;;4965581;28;19929;-82
2023/09/04 11:04:58;;;;;;;;;;;;;;;;;;4985004;28;19929;-81
2023/09/04 11:07:25;;;;;;;;;;;;;;;;;;4962539;28;19926;-82
2023/09/04 11:09:51;;;;;;;;;;;;;;;;;;4980043;28;19929;-82
2023/09/04 11:12:16;;;;;;;;;;;;;;;;;;4956184;28;19922;-83
2023/09/04 11:14:42;;;;;;;;;;;;;;;;;;4976616;28;19930;-84
2023/09/04 11:17:09;;;;;;;;;;;;;;;;;;4983946;28;20027;-82
2023/09/04 11:19:34;;;;;;;;;;;;;;;;;;4966091;28;20344;-84
2023/09/04 11:22:00;;;;;;;;;;;;;;;;;;4978854;28;19930;-81
2023/09/04 11:24:26;;;;;;;;;;;;;;;;;;4977881;28;19937;-84
2023/09/04 11:26:52;;;;;;;;;;;;;;;;;;4976500;28;19926;-84
2023/09/04 11:29:19;;;;;;;;;;;;;;;;;;4972943;28;20372;-83
2023/09/04 11:31:45;;;;;;;;;;;;;;;;;;4969653;28;19928;-83
2023/09/04 11:34:11;;;;;;;;;;;;;;;;;;4983684;28;19917;-83
2023/09/04 11:36:37;;;;;;;;;;;;;;;;;;4964048;28;19921;-83
2023/09/04 11:39:06;;;;;;;;;;;;;;;;;;4984106;28;19990;-81
2023/09/04 11:41:32;;;;;;;;;;;;;;;;;;4979993;28;19922;-83
2023/09/04 11:43:58;;;;;;;;;;;;;;;;;;4973161;28;19932;-83
2023/09/04 11:46:24;;;;;;;;;;;;;;;;;;4976007;28;19922;-84
2023/09/04 11:48:50;;;;;;;;;;;;;;;;;;4989454;28;19927;-84
2023/09/04 11:51:16;;;;;;;;;;;;;;;;;;4976748;28;19921;-84
2023/09/04 11:53:43;;;;;;;;;;;;;;;;;;4985515;28;19927;-83
2023/09/04 11:56:09;;;;;;;;;;;;;;;;;;4964615;28;19956;-83
2023/09/04 11:58:36;;;;;;;;;;;;;;;;;;4980044;28;19969;-83
2023/09/04 12:01:02;;;;;;;;;;;;;;;;;;4985852;28;20412;-83
2023/09/04 12:03:28;;;;;;;;;;;;;;;;;;4979972;28;19921;-84
2023/09/04 12:05:53;;;;;;;;;;;;;;;;;;4964155;28;20015;-83
2023/09/04 12:08:19;;;;;;;;;;;;;;;;;;4974190;28;19945;-83
2023/09/04 12:10:46;;;;;;;;;;;;;;;;;;4973068;28;19921;-83
2023/09/04 12:13:11;;;;;;;;;;;;;;;;;;4966787;28;19921;-82
2023/09/04 12:15:38;;;;;;;;;;;;;;;;;;4972190;28;19928;-83
2023/09/04 12:18:04;;;;;;;;;;;;;;;;;;4963264;28;20486;-84
2023/09/04 12:20:29;;;;;;;;;;;;;;;;;;4974886;28;19926;-84
2023/09/04 12:22:55;;;;;;;;;;;;;;;;;;4982736;28;19922;-83
2023/09/04 12:25:22;;;;;;;;;;;;;;;;;;4981587;28;20396;-84
2023/09/04 12:27:48;;;;;;;;;;;;;;;;;;4994443;28;19998;-84
2023/09/04 12:30:14;;;;;;;;;;;;;;;;;;4961208;28;20024;-84
2023/09/04 12:32:40;;;;;;;;;;;;;;;;;;4986201;28;20328;-83
2023/09/04 12:35:06;;;;;;;;;;;;;;;;;;4962814;28;19956;-83
2023/09/04 12:37:32;;;;;;;;;;;;;;;;;;4975452;28;19927;-83
2023/09/04 12:39:58;;;;;;;;;;;;;;;;;;4980100;28;20367;-83
2023/09/04 12:42:23;;;;;;;;;;;;;;;;;;4988738;28;19917;-84
2023/09/04 12:44:51;;;;;;;;;;;;;;;;;;4964662;28;19926;-84
2023/09/04 12:47:16;;;;;;;;;;;;;;;;;;4983183;28;19948;-82
2023/09/04 12:49:42;;;;;;;;;;;;;;;;;;4969807;28;19925;-83
2023/09/04 12:52:08;;;;;;;;;;;;;;;;;;4989926;28;20019;-83
2023/09/04 12:54:35;;;;;;;;;;;;;;;;;;4971667;28;19921;-83
2023/09/04 12:57:01;;;;;;;;;;;;;;;;;;4990487;28;19930;-83
2023/09/04 12:59:26;;;;;;;;;;;;;;;;;;4977843;28;19917;-83
2023/09/04 13:01:53;;;;;;;;;;;;;;;;;;4986252;28;19930;-84
2023/09/04 13:04:20;;;;;;;;;;;;;;;;;;4966517;28;20032;-84
2023/09/04 13:06:45;;;;;;;;;;;;;;;;;;4967517;28;19937;-84
2023/09/04 13:09:11;;;;;;;;;;;;;;;;;;4969677;28;19921;-84
2023/09/04 13:11:37;;;;;;;;;;;;;;;;;;4966017;28;19925;-83
2023/09/04 13:14:03;;;;;;;;;;;;;;;;;;4982080;28;19937;-84
2023/09/04 13:16:29;;;;;;;;;;;;;;;;;;4968223;28;20079;-83
2023/09/04 13:18:56;;;;;;;;;;;;;;;;;;4984119;28;19921;-81
2023/09/04 13:21:22;;;;;;;;;;;;;;;;;;4983396;28;19927;-83
2023/09/04 13:23:48;;;;;;;;;;;;;;;;;;4964371;28;21295;-82
2023/09/04 13:26:14;;;;;;;;;;;;;;;;;;4984703;28;19933;-83
2023/09/04 13:28:40;;;;;;;;;;;;;;;;;;4965391;28;19921;-83
2023/09/04 13:31:06;;;;;;;;;;;;;;;;;;4966380;28;20344;-85
2023/09/04 13:33:33;;;;;;;;;;;;;;;;;;4966664;28;19981;-84
2023/09/04 13:35:59;;;;;;;;;;;;;;;;;;4983558;28;19921;-83
2023/09/04 13:38:25;;;;;;;;;;;;;;;;;;4984124;28;19983;-83
2023/09/04 13:40:51;;;;;;;;;;;;;;;;;;4967386;28;20024;-83
2023/09/04 13:43:17;;;;;;;;;;;;;;;;;;4967662;28;20024;-83
2023/09/04 13:45:43;;;;;;;;;;;;;;;;;;4983850;28;19933;-82
2023/09/04 13:48:09;;;;;;;;;;;;;;;;;;4985875;28;19994;-83
2023/09/04 13:50:35;;;;;;;;;;;;;;;;;;4985180;28;19974;-83
2023/09/04 13:53:01;;;;;;;;;;;;;;;;;;4965038;28;20011;-83
2023/09/04 13:55:27;;;;;;;;;;;;;;;;;;4966512;28;20011;-84
2023/09/04 13:57:53;;;;;;;;;;;;;;;;;;4970937;28;19951;-83
2023/09/04 14:00:19;;;;;;;;;;;;;;;;;;4987928;28;20498;-83
2023/09/04 14:02:45;;;;;;;;;;;;;;;;;;4970842;28;19932;-83
2023/09/04 14:05:12;;;;;;;;;;;;;;;;;;4986277;28;20332;-83
2023/09/04 14:07:38;;;;;;;;;;;;;;;;;;4986287;28;20634;-84
2023/09/04 14:10:04;;;;;;;;;;;;;;;;;;4969133;28;20011;-83
2023/09/04 14:12:30;;;;;;;;;;;;;;;;;;4989603;28;19960;-83
2023/09/04 14:14:56;;;;;;;;;;;;;;;;;;4964825;28;19956;-82
2023/09/04 14:17:22;;;;;;;;;;;;;;;;;;4982040;28;19916;-82
2023/09/04 14:19:48;;;;;;;;;;;;;;;;;;4983511;28;19917;-82
2023/09/04 14:22:13;;;;;;;;;;;;;;;;;;4982787;28;19927;-83
2023/09/04 14:24:39;;;;;;;;;;;;;;;;;;4962967;28;20327;-83
2023/09/04 14:27:05;;;;;;;;;;;;;;;;;;4988502;28;19921;-80
2023/09/04 14:29:31;;;;;;;;;;;;;;;;;;4983280;28;19917;-82
2023/09/04 14:31:57;;;;;;;;;;;;;;;;;;4975212;28;19924;-82
2023/09/04 14:34:23;;;;;;;;;;;;;;;;;;4960768;28;19971;-82
2023/09/04 14:36:51;;;;;;;;;;;;;;;;;;4966556;28;20387;-83
2023/09/04 14:39:17;;;;;;;;;;;;;;;;;;4995242;28;19921;-82
2023/09/04 14:41:43;;;;;;;;;;;;;;;;;;4994640;28;19940;-82
2023/09/04 14:44:09;;;;;;;;;;;;;;;;;;4977253;28;19924;-82
2023/09/04 14:46:35;;;;;;;;;;;;;;;;;;4972088;28;19926;-80
2023/09/04 14:49:02;;;;;;;;;;;;;;;;;;4983658;28;20447;-82
2023/09/04 14:51:28;;;;;;;;;;;;;;;;;;4987090;28;19920;-83
2023/09/04 14:53:54;;;;;;;;;;;;;;;;;;4988555;28;19944;-82
2023/09/04 14:56:20;;;;;;;;;;;;;;;;;;4966549;28;20398;-83
2023/09/04 14:58:46;;;;;;;;;;;;;;;;;;4983409;28;20033;-83
2023/09/04 15:01:12;;;;;;;;;;;;;;;;;;4962941;28;19944;-83
2023/09/04 15:03:38;;;;;;;;;;;;;;;;;;4965963;28;19936;-83
2023/09/04 15:06:04;;;;;;;;;;;;;;;;;;4986474;28;19981;-82
2023/09/04 15:08:30;;;;;;;;;;;;;;;;;;4961001;28;19921;-83
2023/09/04 15:10:56;;;;;;;;;;;;;;;;;;4986823;28;19926;-83
2023/09/04 15:13:22;;;;;;;;;;;;;;;;;;4986622;28;19921;-83
2023/09/04 15:15:48;;;;;;;;;;;;;;;;;;4965578;28;20074;-82
2023/09/04 15:18:14;;;;;;;;;;;;;;;;;;4977868;28;19926;-82
2023/09/04 15:20:40;;;;;;;;;;;;;;;;;;4969886;28;19921;-82
2023/09/04 15:23:05;;;;;;;;;;;;;;;;;;4969715;28;19930;-83
2023/09/04 15:25:31;;;;;;;;;;;;;;;;;;4960064;28;20345;-82
